sensor_id;sensor_type;location;lat;lon;timestamp;pressure;altitude;pressure_sealevel;temperature;humidity
65832;BME280;52593;42.648;23.332;2022-12-29T00:01:47;95465.09;;;3.50;92.86
65832;BME280;52593;42.648;23.332;2022-12-29T00:04:14;95457.84;;;3.41;92.70
65832;BME280;52593;42.648;23.332;2022-12-29T00:06:39;95457.84;;;3.41;92.54
65832;BME280;52593;42.648;23.332;2022-12-29T00:09:05;95463.63;;;3.46;92.55
65832;BME280;52593;42.648;23.332;2022-12-29T00:11:30;95464.25;;;3.49;92.61
65832;BME280;52593;42.648;23.332;2022-12-29T00:13:56;95469.91;;;3.45;92.73
65832;BME280;52593;42.648;23.332;2022-12-29T00:16:42;95473.75;;;3.52;92.58
65832;BME280;52593;42.648;23.332;2022-12-29T00:19:08;95470.16;;;3.53;92.37
65832;BME280;52593;42.648;23.332;2022-12-29T00:21:54;95475.69;;;3.50;92.55
65832;BME280;52593;42.648;23.332;2022-12-29T00:24:38;95471.44;;;3.47;92.72
65832;BME280;52593;42.648;23.332;2022-12-29T00:27:19;95469.31;;;3.52;92.64
65832;BME280;52593;42.648;23.332;2022-12-29T00:30:08;95464.25;;;3.49;92.40
65832;BME280;52593;42.648;23.332;2022-12-29T00:32:53;95473.63;;;3.53;92.34
65832;BME280;52593;42.648;23.332;2022-12-29T00:35:39;95468.25;;;3.66;91.22
65832;BME280;52593;42.648;23.332;2022-12-29T00:38:09;95477.97;;;3.54;91.86
65832;BME280;52593;42.648;23.332;2022-12-29T00:40:53;95481.56;;;3.53;92.45
65832;BME280;52593;42.648;23.332;2022-12-29T00:43:37;95480.25;;;3.59;92.15
65832;BME280;52593;42.648;23.332;2022-12-29T00:46:21;95475.56;;;3.63;92.20
65832;BME280;52593;42.648;23.332;2022-12-29T00:48:47;95491.84;;;3.69;91.39
65832;BME280;52593;42.648;23.332;2022-12-29T00:51:31;95487.38;;;3.59;90.86
65832;BME280;52593;42.648;23.332;2022-12-29T00:53:56;95489.78;;;3.62;91.38
65832;BME280;52593;42.648;23.332;2022-12-29T00:56:21;95484.69;;;3.47;91.28
65832;BME280;52593;42.648;23.332;2022-12-29T00:58:47;95477.44;;;3.38;91.15
65832;BME280;52593;42.648;23.332;2022-12-29T01:01:12;95484.31;;;3.41;91.80
65832;BME280;52593;42.648;23.332;2022-12-29T01:03:38;95479.78;;;3.54;91.23
65832;BME280;52593;42.648;23.332;2022-12-29T01:06:05;95488.19;;;3.59;90.49
65832;BME280;52593;42.648;23.332;2022-12-29T01:08:31;95489.28;;;3.56;89.98
65832;BME280;52593;42.648;23.332;2022-12-29T01:11:09;95487.09;;;3.50;89.67
65832;BME280;52593;42.648;23.332;2022-12-29T01:13:36;95484.38;;;3.28;90.51
65832;BME280;52593;42.648;23.332;2022-12-29T01:16:04;95478.31;;;3.38;91.00
65832;BME280;52593;42.648;23.332;2022-12-29T01:18:30;95474.09;;;3.36;90.31
65832;BME280;52593;42.648;23.332;2022-12-29T01:21:00;95474.31;;;3.33;90.93
65832;BME280;52593;42.648;23.332;2022-12-29T01:23:26;95475.00;;;3.24;91.40
65832;BME280;52593;42.648;23.332;2022-12-29T01:25:51;95475.63;;;3.27;91.79
65832;BME280;52593;42.648;23.332;2022-12-29T01:28:17;95470.97;;;3.31;91.30
65832;BME280;52593;42.648;23.332;2022-12-29T01:30:42;95473.31;;;3.22;91.28
65832;BME280;52593;42.648;23.332;2022-12-29T01:33:07;95473.66;;;3.18;91.61
65832;BME280;52593;42.648;23.332;2022-12-29T01:35:33;95470.31;;;3.16;92.13
65832;BME280;52593;42.648;23.332;2022-12-29T01:37:58;95458.59;;;3.07;92.43
65832;BME280;52593;42.648;23.332;2022-12-29T01:40:24;95458.59;;;3.07;92.93
65832;BME280;52593;42.648;23.332;2022-12-29T01:42:50;95459.31;;;3.09;92.90
65832;BME280;52593;42.648;23.332;2022-12-29T01:45:16;95454.44;;;3.16;92.70
65832;BME280;52593;42.648;23.332;2022-12-29T01:47:58;95454.78;;;3.11;92.87
65832;BME280;52593;42.648;23.332;2022-12-29T01:50:32;95454.91;;;3.21;92.50
65832;BME280;52593;42.648;23.332;2022-12-29T01:53:03;95454.34;;;3.29;91.62
65832;BME280;52593;42.648;23.332;2022-12-29T01:55:37;95450.47;;;3.21;91.59
65832;BME280;52593;42.648;23.332;2022-12-29T01:58:06;95445.81;;;3.25;91.93
65832;BME280;52593;42.648;23.332;2022-12-29T02:00:31;95449.50;;;3.22;91.82
65832;BME280;52593;42.648;23.332;2022-12-29T02:02:57;95449.28;;;3.26;91.98
65832;BME280;52593;42.648;23.332;2022-12-29T02:05:28;95446.28;;;3.19;91.72
65832;BME280;52593;42.648;23.332;2022-12-29T02:07:57;95436.28;;;3.22;91.81
65832;BME280;52593;42.648;23.332;2022-12-29T02:10:25;95440.16;;;3.30;91.99
65832;BME280;52593;42.648;23.332;2022-12-29T02:12:51;95436.78;;;3.28;92.10
65832;BME280;52593;42.648;23.332;2022-12-29T02:15:19;95434.63;;;3.33;92.11
65832;BME280;52593;42.648;23.332;2022-12-29T02:18:01;95439.34;;;3.52;91.67
65832;BME280;52593;42.648;23.332;2022-12-29T02:42:44;95433.09;;;3.53;90.00
65832;BME280;52593;42.648;23.332;2022-12-29T02:47:57;95440.91;;;3.43;90.91
65832;BME280;52593;42.648;23.332;2022-12-29T02:50:37;95430.81;;;3.60;89.92
65832;BME280;52593;42.648;23.332;2022-12-29T02:53:08;95434.88;;;3.41;90.05
65832;BME280;52593;42.648;23.332;2022-12-29T02:55:34;95433.16;;;3.17;90.92
65832;BME280;52593;42.648;23.332;2022-12-29T03:00:44;95430.88;;;3.13;91.96
65832;BME280;52593;42.648;23.332;2022-12-29T03:11:13;95419.47;;;3.24;91.81
65832;BME280;52593;42.648;23.332;2022-12-29T03:14:22;95419.94;;;3.29;91.56
65832;BME280;52593;42.648;23.332;2022-12-29T03:17:18;95419.25;;;3.27;90.79
65832;BME280;52593;42.648;23.332;2022-12-29T03:19:51;95423.66;;;3.15;91.56
65832;BME280;52593;42.648;23.332;2022-12-29T03:22:23;95412.47;;;3.11;91.77
65832;BME280;52593;42.648;23.332;2022-12-29T03:25:10;95413.44;;;3.10;91.74
65832;BME280;52593;42.648;23.332;2022-12-29T03:27:41;95408.97;;;3.11;91.74
65832;BME280;52593;42.648;23.332;2022-12-29T03:30:07;95406.66;;;2.95;92.33
65832;BME280;52593;42.648;23.332;2022-12-29T03:32:49;95421.69;;;2.94;92.65
65832;BME280;52593;42.648;23.332;2022-12-29T03:35:19;95421.06;;;2.91;92.50
65832;BME280;52593;42.648;23.332;2022-12-29T03:37:55;95415.75;;;2.91;92.21
65832;BME280;52593;42.648;23.332;2022-12-29T03:40:24;95406.09;;;2.67;92.66
65832;BME280;52593;42.648;23.332;2022-12-29T03:42:52;95420.53;;;2.74;92.30
65832;BME280;52593;42.648;23.332;2022-12-29T03:45:19;95418.59;;;2.65;93.09
65832;BME280;52593;42.648;23.332;2022-12-29T03:47:44;95417.44;;;2.56;93.05
65832;BME280;52593;42.648;23.332;2022-12-29T03:50:12;95417.03;;;2.49;93.31
65832;BME280;52593;42.648;23.332;2022-12-29T03:52:37;95427.34;;;2.41;93.71
65832;BME280;52593;42.648;23.332;2022-12-29T03:55:03;95430.31;;;2.37;93.71
65832;BME280;52593;42.648;23.332;2022-12-29T03:57:28;95430.81;;;2.42;93.70
65832;BME280;52593;42.648;23.332;2022-12-29T03:59:54;95433.56;;;2.40;92.72
65832;BME280;52593;42.648;23.332;2022-12-29T04:02:19;95438.50;;;2.21;93.54
65832;BME280;52593;42.648;23.332;2022-12-29T04:04:44;95438.75;;;2.05;94.18
65832;BME280;52593;42.648;23.332;2022-12-29T04:07:10;95438.53;;;2.08;94.48
65832;BME280;52593;42.648;23.332;2022-12-29T04:09:36;95440.84;;;2.12;94.15
65832;BME280;52593;42.648;23.332;2022-12-29T04:12:01;95441.19;;;2.08;94.34
65832;BME280;52593;42.648;23.332;2022-12-29T04:14:27;95437.41;;;1.99;94.51
65832;BME280;52593;42.648;23.332;2022-12-29T04:16:52;95430.44;;;1.98;94.41
65832;BME280;52593;42.648;23.332;2022-12-29T04:19:17;95440.19;;;1.85;95.12
65832;BME280;52593;42.648;23.332;2022-12-29T04:21:43;95433.63;;;1.90;95.50
65832;BME280;52593;42.648;23.332;2022-12-29T04:24:08;95443.22;;;1.91;95.36
65832;BME280;52593;42.648;23.332;2022-12-29T04:26:44;95449.34;;;1.92;95.42
65832;BME280;52593;42.648;23.332;2022-12-29T04:29:13;95434.97;;;1.96;94.87
65832;BME280;52593;42.648;23.332;2022-12-29T04:31:38;95454.53;;;1.81;94.85
65832;BME280;52593;42.648;23.332;2022-12-29T04:34:03;95450.34;;;1.78;94.76
65832;BME280;52593;42.648;23.332;2022-12-29T04:36:29;95455.50;;;1.80;94.87
65832;BME280;52593;42.648;23.332;2022-12-29T04:38:54;95447.16;;;1.86;93.90
65832;BME280;52593;42.648;23.332;2022-12-29T04:41:19;95464.34;;;1.78;94.25
65832;BME280;52593;42.648;23.332;2022-12-29T04:43:45;95457.59;;;1.74;94.59
65832;BME280;52593;42.648;23.332;2022-12-29T04:46:10;95461.63;;;1.67;94.80
65832;BME280;52593;42.648;23.332;2022-12-29T04:48:35;95467.22;;;1.75;95.02
65832;BME280;52593;42.648;23.332;2022-12-29T04:51:01;95465.84;;;1.70;95.24
65832;BME280;52593;42.648;23.332;2022-12-29T04:53:26;95474.06;;;1.65;95.52
65832;BME280;52593;42.648;23.332;2022-12-29T04:55:52;95480.94;;;1.68;95.26
65832;BME280;52593;42.648;23.332;2022-12-29T04:58:21;95474.94;;;1.66;95.67
65832;BME280;52593;42.648;23.332;2022-12-29T05:00:47;95463.09;;;1.71;95.83
65832;BME280;52593;42.648;23.332;2022-12-29T05:03:12;95469.41;;;1.82;95.62
65832;BME280;52593;42.648;23.332;2022-12-29T05:05:37;95477.13;;;1.85;95.12
65832;BME280;52593;42.648;23.332;2022-12-29T05:08:03;95470.03;;;1.98;94.71
65832;BME280;52593;42.648;23.332;2022-12-29T05:10:29;95475.09;;;1.88;94.69
65832;BME280;52593;42.648;23.332;2022-12-29T05:12:55;95472.56;;;2.00;94.84
65832;BME280;52593;42.648;23.332;2022-12-29T05:15:21;95473.72;;;1.95;94.99
65832;BME280;52593;42.648;23.332;2022-12-29T05:18:15;95475.09;;;2.01;95.06
65832;BME280;52593;42.648;23.332;2022-12-29T05:20:40;95474.13;;;2.15;95.07
65832;BME280;52593;42.648;23.332;2022-12-29T05:23:12;95475.03;;;2.27;94.03
65832;BME280;52593;42.648;23.332;2022-12-29T05:25:43;95465.97;;;2.18;93.70
65832;BME280;52593;42.648;23.332;2022-12-29T05:28:10;95462.50;;;2.05;94.59
65832;BME280;52593;42.648;23.332;2022-12-29T05:30:35;95468.00;;;2.14;95.25
65832;BME280;52593;42.648;23.332;2022-12-29T05:33:00;95467.25;;;2.12;95.54
65832;BME280;52593;42.648;23.332;2022-12-29T05:35:26;95465.03;;;2.06;95.82
65832;BME280;52593;42.648;23.332;2022-12-29T05:37:51;95471.47;;;2.15;96.28
65832;BME280;52593;42.648;23.332;2022-12-29T05:40:17;95469.88;;;2.12;96.26
65832;BME280;52593;42.648;23.332;2022-12-29T05:42:42;95470.44;;;2.18;96.23
65832;BME280;52593;42.648;23.332;2022-12-29T05:45:08;95474.41;;;2.23;96.65
65832;BME280;52593;42.648;23.332;2022-12-29T05:47:34;95473.97;;;2.29;96.59
65832;BME280;52593;42.648;23.332;2022-12-29T05:50:00;95474.50;;;2.35;95.92
65832;BME280;52593;42.648;23.332;2022-12-29T05:52:41;95482.63;;;2.31;95.94
65832;BME280;52593;42.648;23.332;2022-12-29T05:55:07;95477.56;;;2.28;95.85
65832;BME280;52593;42.648;23.332;2022-12-29T05:57:32;95485.50;;;2.28;96.20
65832;BME280;52593;42.648;23.332;2022-12-29T05:59:58;95486.84;;;2.34;96.67
65832;BME280;52593;42.648;23.332;2022-12-29T06:02:23;95487.81;;;2.33;96.88
65832;BME280;52593;42.648;23.332;2022-12-29T06:04:48;95491.28;;;2.34;97.37
65832;BME280;52593;42.648;23.332;2022-12-29T06:07:14;95490.41;;;2.46;97.33
65832;BME280;52593;42.648;23.332;2022-12-29T06:09:39;95490.03;;;2.63;95.60
65832;BME280;52593;42.648;23.332;2022-12-29T06:12:05;95496.16;;;2.64;95.38
65832;BME280;52593;42.648;23.332;2022-12-29T06:14:30;95491.44;;;2.56;96.01
65832;BME280;52593;42.648;23.332;2022-12-29T06:16:56;95495.63;;;2.59;96.65
65832;BME280;52593;42.648;23.332;2022-12-29T06:19:21;95493.22;;;2.56;96.71
65832;BME280;52593;42.648;23.332;2022-12-29T06:21:46;95494.22;;;2.66;96.76
65832;BME280;52593;42.648;23.332;2022-12-29T06:24:12;95497.78;;;2.78;96.25
65832;BME280;52593;42.648;23.332;2022-12-29T06:26:37;95495.16;;;2.78;95.68
65832;BME280;52593;42.648;23.332;2022-12-29T06:29:03;95492.84;;;2.73;95.95
65832;BME280;52593;42.648;23.332;2022-12-29T06:31:28;95495.97;;;2.78;95.47
65832;BME280;52593;42.648;23.332;2022-12-29T06:33:54;95497.00;;;2.89;95.09
65832;BME280;52593;42.648;23.332;2022-12-29T06:36:19;95494.38;;;3.00;95.12
65832;BME280;52593;42.648;23.332;2022-12-29T06:38:44;95490.34;;;3.07;94.30
65832;BME280;52593;42.648;23.332;2022-12-29T06:41:10;95506.00;;;3.21;93.76
65832;BME280;52593;42.648;23.332;2022-12-29T06:43:35;95502.53;;;3.21;92.96
65832;BME280;52593;42.648;23.332;2022-12-29T06:46:04;95504.06;;;3.12;93.11
65832;BME280;52593;42.648;23.332;2022-12-29T06:48:29;95499.06;;;3.20;93.13
65832;BME280;52593;42.648;23.332;2022-12-29T06:50:55;95499.28;;;3.17;93.33
65832;BME280;52593;42.648;23.332;2022-12-29T06:53:20;95502.06;;;3.27;93.53
65832;BME280;52593;42.648;23.332;2022-12-29T06:55:46;95501.13;;;3.28;93.26
65832;BME280;52593;42.648;23.332;2022-12-29T06:58:11;95507.06;;;3.43;92.82
65832;BME280;52593;42.648;23.332;2022-12-29T07:00:36;95511.59;;;3.41;92.75
65832;BME280;52593;42.648;23.332;2022-12-29T07:03:02;95512.72;;;3.50;93.06
65832;BME280;52593;42.648;23.332;2022-12-29T07:05:27;95505.91;;;3.59;92.42
65832;BME280;52593;42.648;23.332;2022-12-29T07:07:54;95499.91;;;3.68;92.12
65832;BME280;52593;42.648;23.332;2022-12-29T07:10:20;95507.00;;;3.79;90.69
65832;BME280;52593;42.648;23.332;2022-12-29T07:12:45;95512.06;;;3.82;89.84
65832;BME280;52593;42.648;23.332;2022-12-29T07:15:11;95508.56;;;3.81;90.18
65832;BME280;52593;42.648;23.332;2022-12-29T07:17:36;95512.53;;;3.75;89.84
65832;BME280;52593;42.648;23.332;2022-12-29T07:20:01;95505.41;;;3.65;90.08
65832;BME280;52593;42.648;23.332;2022-12-29T07:22:27;95506.59;;;3.61;90.66
65832;BME280;52593;42.648;23.332;2022-12-29T07:24:52;95504.44;;;3.66;91.29
65832;BME280;52593;42.648;23.332;2022-12-29T07:27:18;95501.31;;;3.72;90.82
65832;BME280;52593;42.648;23.332;2022-12-29T07:29:43;95507.59;;;3.71;91.35
65832;BME280;52593;42.648;23.332;2022-12-29T07:32:08;95508.91;;;3.77;89.91
65832;BME280;52593;42.648;23.332;2022-12-29T07:34:34;95503.88;;;3.96;89.55
65832;BME280;52593;42.648;23.332;2022-12-29T07:36:59;95504.59;;;3.87;90.05
65832;BME280;52593;42.648;23.332;2022-12-29T07:39:25;95492.44;;;4.07;90.05
65832;BME280;52593;42.648;23.332;2022-12-29T07:41:50;95494.03;;;4.09;88.33
65832;BME280;52593;42.648;23.332;2022-12-29T07:44:15;95501.75;;;4.01;89.05
65832;BME280;52593;42.648;23.332;2022-12-29T07:46:41;95495.94;;;4.19;88.72
65832;BME280;52593;42.648;23.332;2022-12-29T07:49:06;95504.72;;;4.19;89.94
65832;BME280;52593;42.648;23.332;2022-12-29T07:51:32;95502.22;;;4.29;89.72
65832;BME280;52593;42.648;23.332;2022-12-29T07:53:57;95504.00;;;4.28;89.62
65832;BME280;52593;42.648;23.332;2022-12-29T07:56:25;95512.78;;;4.40;90.05
65832;BME280;52593;42.648;23.332;2022-12-29T07:58:50;95505.06;;;4.49;88.41
65832;BME280;52593;42.648;23.332;2022-12-29T08:01:16;95509.03;;;4.54;89.35
65832;BME280;52593;42.648;23.332;2022-12-29T08:03:41;95502.28;;;4.61;87.92
65832;BME280;52593;42.648;23.332;2022-12-29T08:06:09;95507.41;;;4.74;84.34
65832;BME280;52593;42.648;23.332;2022-12-29T08:08:35;95515.13;;;4.77;84.15
65832;BME280;52593;42.648;23.332;2022-12-29T08:11:00;95513.22;;;4.79;83.75
65832;BME280;52593;42.648;23.332;2022-12-29T08:13:25;95516.94;;;4.77;84.72
65832;BME280;52593;42.648;23.332;2022-12-29T08:15:51;95518.53;;;4.79;86.64
65832;BME280;52593;42.648;23.332;2022-12-29T08:18:16;95508.94;;;4.88;86.44
65832;BME280;52593;42.648;23.332;2022-12-29T08:20:41;95511.97;;;4.83;86.31
65832;BME280;52593;42.648;23.332;2022-12-29T08:23:07;95512.59;;;4.87;85.07
65832;BME280;52593;42.648;23.332;2022-12-29T08:25:32;95510.34;;;5.04;82.93
65832;BME280;52593;42.648;23.332;2022-12-29T08:27:58;95502.13;;;5.07;82.09
65832;BME280;52593;42.648;23.332;2022-12-29T08:30:23;95502.88;;;5.09;81.83
65832;BME280;52593;42.648;23.332;2022-12-29T08:32:48;95507.94;;;5.00;81.83
65832;BME280;52593;42.648;23.332;2022-12-29T08:35:14;95509.44;;;4.93;82.38
65832;BME280;52593;42.648;23.332;2022-12-29T08:37:39;95505.59;;;4.86;82.52
65832;BME280;52593;42.648;23.332;2022-12-29T08:40:05;95502.09;;;4.86;82.85
65832;BME280;52593;42.648;23.332;2022-12-29T08:42:31;95503.63;;;4.99;83.54
65832;BME280;52593;42.648;23.332;2022-12-29T08:44:57;95498.19;;;5.01;83.40
65832;BME280;52593;42.648;23.332;2022-12-29T08:47:23;95501.06;;;5.09;82.73
65832;BME280;52593;42.648;23.332;2022-12-29T08:49:49;95495.63;;;5.11;81.28
65832;BME280;52593;42.648;23.332;2022-12-29T08:52:14;95502.91;;;4.97;81.42
65832;BME280;52593;42.648;23.332;2022-12-29T08:54:39;95498.53;;;5.08;81.68
65832;BME280;52593;42.648;23.332;2022-12-29T08:57:05;95506.03;;;5.24;80.57
65832;BME280;52593;42.648;23.332;2022-12-29T08:59:30;95497.75;;;5.17;80.23
65832;BME280;52593;42.648;23.332;2022-12-29T09:01:56;95494.84;;;5.20;80.51
65832;BME280;52593;42.648;23.332;2022-12-29T09:04:21;95497.56;;;5.09;80.67
65832;BME280;52593;42.648;23.332;2022-12-29T09:06:49;95486.19;;;5.18;80.88
65832;BME280;52593;42.648;23.332;2022-12-29T09:09:15;95492.03;;;5.33;79.79
65832;BME280;52593;42.648;23.332;2022-12-29T09:11:41;95487.97;;;5.50;79.08
65832;BME280;52593;42.648;23.332;2022-12-29T09:14:07;95494.63;;;5.44;78.93
65832;BME280;52593;42.648;23.332;2022-12-29T09:16:33;95475.09;;;5.45;79.25
65832;BME280;52593;42.648;23.332;2022-12-29T09:18:59;95485.09;;;5.42;78.81
65832;BME280;52593;42.648;23.332;2022-12-29T09:21:25;95480.53;;;5.44;78.61
65832;BME280;52593;42.648;23.332;2022-12-29T09:23:50;95475.13;;;5.34;79.13
65832;BME280;52593;42.648;23.332;2022-12-29T09:26:15;95478.50;;;5.36;79.12
65832;BME280;52593;42.648;23.332;2022-12-29T09:28:41;95474.63;;;5.40;80.10
65832;BME280;52593;42.648;23.332;2022-12-29T09:31:07;95473.31;;;5.56;78.71
65832;BME280;52593;42.648;23.332;2022-12-29T09:33:33;95473.66;;;5.62;78.31
65832;BME280;52593;42.648;23.332;2022-12-29T09:35:59;95476.94;;;5.76;78.30
65832;BME280;52593;42.648;23.332;2022-12-29T09:38:25;95463.84;;;5.84;77.95
65832;BME280;52593;42.648;23.332;2022-12-29T09:40:55;95467.41;;;5.94;77.62
65832;BME280;52593;42.648;23.332;2022-12-29T09:46:03;95465.25;;;5.88;76.75
65832;BME280;52593;42.648;23.332;2022-12-29T09:48:36;95458.00;;;5.90;76.76
65832;BME280;52593;42.648;23.332;2022-12-29T09:51:09;95456.16;;;6.02;76.25
65832;BME280;52593;42.648;23.332;2022-12-29T09:53:41;95456.34;;;6.20;75.92
65832;BME280;52593;42.648;23.332;2022-12-29T09:56:19;95445.63;;;6.31;75.58
65832;BME280;52593;42.648;23.332;2022-12-29T09:58:59;95443.53;;;6.45;75.83
65832;BME280;52593;42.648;23.332;2022-12-29T10:01:54;95445.56;;;6.62;75.33
65832;BME280;52593;42.648;23.332;2022-12-29T10:04:22;95447.09;;;6.74;74.30
65832;BME280;52593;42.648;23.332;2022-12-29T10:06:56;95431.00;;;6.76;74.19
65832;BME280;52593;42.648;23.332;2022-12-29T10:17:44;95431.44;;;7.20;72.46
65832;BME280;52593;42.648;23.332;2022-12-29T10:25:41;95413.84;;;7.66;69.68
65832;BME280;52593;42.648;23.332;2022-12-29T10:31:17;95420.63;;;7.89;70.56
65832;BME280;52593;42.648;23.332;2022-12-29T10:33:49;95420.47;;;8.00;69.43
65832;BME280;52593;42.648;23.332;2022-12-29T10:36:20;95413.00;;;8.03;69.83
65832;BME280;52593;42.648;23.332;2022-12-29T10:38:54;95417.16;;;8.16;69.40
65832;BME280;52593;42.648;23.332;2022-12-29T10:41:25;95403.13;;;8.51;67.91
65832;BME280;52593;42.648;23.332;2022-12-29T10:43:54;95402.63;;;8.66;68.67
65832;BME280;52593;42.648;23.332;2022-12-29T10:46:25;95391.34;;;8.72;66.72
65832;BME280;52593;42.648;23.332;2022-12-29T10:48:52;95397.97;;;8.68;66.49
65832;BME280;52593;42.648;23.332;2022-12-29T10:53:55;95395.66;;;8.55;67.21
65832;BME280;52593;42.648;23.332;2022-12-29T10:59:26;95380.81;;;8.70;66.33
65832;BME280;52593;42.648;23.332;2022-12-29T11:07:30;95370.06;;;9.16;65.70
65832;BME280;52593;42.648;23.332;2022-12-29T11:10:16;95366.69;;;9.14;65.56
65832;BME280;52593;42.648;23.332;2022-12-29T11:12:55;95365.66;;;9.07;65.21
65832;BME280;52593;42.648;23.332;2022-12-29T11:15:21;95362.59;;;9.02;65.79
65832;BME280;52593;42.648;23.332;2022-12-29T11:17:50;95360.63;;;9.04;64.91
65832;BME280;52593;42.648;23.332;2022-12-29T11:20:37;95357.63;;;9.07;65.47
65832;BME280;52593;42.648;23.332;2022-12-29T11:23:06;95355.28;;;9.04;65.35
65832;BME280;52593;42.648;23.332;2022-12-29T11:25:45;95350.72;;;8.78;66.15
65832;BME280;52593;42.648;23.332;2022-12-29T11:28:15;95357.13;;;8.85;66.19
65832;BME280;52593;42.648;23.332;2022-12-29T11:30:41;95358.72;;;8.96;66.20
65832;BME280;52593;42.648;23.332;2022-12-29T11:33:08;95348.97;;;8.87;65.81
65832;BME280;52593;42.648;23.332;2022-12-29T11:35:43;95350.72;;;8.96;65.72
65832;BME280;52593;42.648;23.332;2022-12-29T11:38:23;95345.84;;;8.91;65.33
65832;BME280;52593;42.648;23.332;2022-12-29T11:40:50;95344.91;;;9.01;65.63
65832;BME280;52593;42.648;23.332;2022-12-29T11:43:32;95339.72;;;8.99;66.28
65832;BME280;52593;42.648;23.332;2022-12-29T11:45:59;95332.06;;;9.22;64.96
65832;BME280;52593;42.648;23.332;2022-12-29T11:48:29;95346.16;;;9.33;64.95
65832;BME280;52593;42.648;23.332;2022-12-29T11:50:58;95340.44;;;9.27;65.12
65832;BME280;52593;42.648;23.332;2022-12-29T11:53:39;95337.13;;;9.34;64.48
65832;BME280;52593;42.648;23.332;2022-12-29T11:56:11;95329.75;;;9.54;64.29
65832;BME280;52593;42.648;23.332;2022-12-29T11:58:38;95331.59;;;9.53;63.59
65832;BME280;52593;42.648;23.332;2022-12-29T12:01:13;95338.22;;;9.49;63.57
65832;BME280;52593;42.648;23.332;2022-12-29T12:03:45;95335.94;;;9.54;64.37
65832;BME280;52593;42.648;23.332;2022-12-29T12:06:16;95326.34;;;9.70;62.74
65832;BME280;52593;42.648;23.332;2022-12-29T12:11:20;95329.06;;;9.86;63.23
65832;BME280;52593;42.648;23.332;2022-12-29T12:14:02;95322.50;;;10.15;62.42
65832;BME280;52593;42.648;23.332;2022-12-29T12:17:03;95326.56;;;10.27;61.88
65832;BME280;52593;42.648;23.332;2022-12-29T12:19:41;95324.75;;;10.28;61.12
65832;BME280;52593;42.648;23.332;2022-12-29T12:22:37;95320.31;;;10.53;60.17
65832;BME280;52593;42.648;23.332;2022-12-29T12:27:46;95310.59;;;10.35;60.26
65832;BME280;52593;42.648;23.332;2022-12-29T12:30:21;95299.97;;;10.26;61.28
65832;BME280;52593;42.648;23.332;2022-12-29T12:35:13;95314.81;;;10.63;59.87
65832;BME280;52593;42.648;23.332;2022-12-29T13:17:39;95306.09;;;10.61;59.29
65832;BME280;52593;42.648;23.332;2022-12-29T13:36:36;95301.09;;;10.74;59.04
65832;BME280;52593;42.648;23.332;2022-12-29T13:39:10;95307.97;;;10.85;59.06
65832;BME280;52593;42.648;23.332;2022-12-29T13:41:41;95311.00;;;10.74;59.26
65832;BME280;52593;42.648;23.332;2022-12-29T13:44:14;95314.28;;;10.51;59.87
65832;BME280;52593;42.648;23.332;2022-12-29T13:46:43;95316.34;;;10.14;60.96
65832;BME280;52593;42.648;23.332;2022-12-29T13:49:17;95321.25;;;9.93;62.05
65832;BME280;52593;42.648;23.332;2022-12-29T13:51:52;95308.31;;;9.80;62.81
65832;BME280;52593;42.648;23.332;2022-12-29T13:59:52;95312.78;;;9.37;64.98
65832;BME280;52593;42.648;23.332;2022-12-29T14:07:49;95320.72;;;9.02;66.18
65832;BME280;52593;42.648;23.332;2022-12-29T14:13:21;95326.38;;;8.99;67.25
65832;BME280;52593;42.648;23.332;2022-12-29T14:15:54;95322.47;;;8.93;67.68
65832;BME280;52593;42.648;23.332;2022-12-29T14:18:22;95326.75;;;8.86;68.05
65832;BME280;52593;42.648;23.332;2022-12-29T14:21:10;95326.94;;;8.67;68.17
65832;BME280;52593;42.648;23.332;2022-12-29T14:23:45;95327.63;;;8.69;68.20
65832;BME280;52593;42.648;23.332;2022-12-29T14:28:54;95332.56;;;8.46;68.99
65832;BME280;52593;42.648;23.332;2022-12-29T14:36:43;95354.34;;;8.13;71.30
65832;BME280;52593;42.648;23.332;2022-12-29T14:39:41;95355.19;;;8.14;70.33
65832;BME280;52593;42.648;23.332;2022-12-29T14:47:33;95351.78;;;7.84;71.53
65832;BME280;52593;42.648;23.332;2022-12-29T14:50:07;95350.00;;;7.75;72.09
65832;BME280;52593;42.648;23.332;2022-12-29T14:52:49;95356.38;;;7.64;72.94
65832;BME280;52593;42.648;23.332;2022-12-29T14:57:41;95350.78;;;7.57;74.07
65832;BME280;52593;42.648;23.332;2022-12-29T15:00:34;95360.22;;;7.42;74.48
65832;BME280;52593;42.648;23.332;2022-12-29T15:03:18;95362.81;;;7.14;75.39
65832;BME280;52593;42.648;23.332;2022-12-29T15:05:46;95363.09;;;7.11;75.84
65832;BME280;52593;42.648;23.332;2022-12-29T15:08:18;95361.00;;;7.05;75.94
65832;BME280;52593;42.648;23.332;2022-12-29T15:10:53;95353.97;;;7.13;76.17
65832;BME280;52593;42.648;23.332;2022-12-29T15:13:24;95362.41;;;6.89;77.56
65832;BME280;52593;42.648;23.332;2022-12-29T15:15:51;95365.47;;;6.75;77.78
65832;BME280;52593;42.648;23.332;2022-12-29T15:18:30;95359.34;;;6.74;77.88
65832;BME280;52593;42.648;23.332;2022-12-29T15:20:58;95364.66;;;6.65;78.56
65832;BME280;52593;42.648;23.332;2022-12-29T15:23:25;95364.34;;;6.58;78.71
65832;BME280;52593;42.648;23.332;2022-12-29T15:25:55;95361.97;;;6.45;78.79
65832;BME280;52593;42.648;23.332;2022-12-29T15:28:21;95364.47;;;6.37;79.48
65832;BME280;52593;42.648;23.332;2022-12-29T15:31:03;95361.53;;;6.30;79.96
65832;BME280;52593;42.648;23.332;2022-12-29T15:33:29;95344.72;;;6.10;80.36
65832;BME280;52593;42.648;23.332;2022-12-29T15:35:57;95347.91;;;6.04;80.69
65832;BME280;52593;42.648;23.332;2022-12-29T15:38:28;95341.03;;;6.01;80.33
65832;BME280;52593;42.648;23.332;2022-12-29T15:40:59;95349.44;;;5.97;80.04
65832;BME280;52593;42.648;23.332;2022-12-29T15:46:06;95341.41;;;5.87;80.65
65832;BME280;52593;42.648;23.332;2022-12-29T15:48:32;95347.41;;;5.89;79.94
65832;BME280;52593;42.648;23.332;2022-12-29T15:50:57;95341.09;;;6.11;79.42
65832;BME280;52593;42.648;23.332;2022-12-29T15:53:27;95340.13;;;5.91;79.62
65832;BME280;52593;42.648;23.332;2022-12-29T15:56:00;95344.75;;;5.79;80.07